Time;durP1;ratioP1;P1;durP2;ratioP2;P2;SDS_P1;SDS_P2;PMS_P1;PMS_P2;Temp;Humidity;BMP_temperature;BMP_pressure;BME280_temperature;BME280_humidity;BME280_pressure;Samples;Min_cycle;Max_cycle;Signal;HPM_P1;HPM_P2
2022/05/12 00:02:03;;;;;;;8.60;3.85;;;;;;;23.11;37.00;98696.16;4487994;32;20092;-83
2022/05/12 00:04:30;;;;;;;9.20;4.00;;;;;;;23.06;37.27;98693.94;4487970;32;20092;-83
2022/05/12 00:06:56;;;;;;;12.67;4.17;;;;;;;23.15;37.13;98684.88;4473843;32;20107;-83
2022/05/12 00:09:22;;;;;;;10.38;3.92;;;;;;;23.16;37.04;98699.19;4488102;32;20101;-83
2022/05/12 00:11:47;;;;;;;9.40;4.22;;;;;;;23.25;36.83;98697.34;4487726;32;20167;-83
2022/05/12 00:14:13;;;;;;;9.45;3.92;;;;;;;23.22;37.05;98689.59;4487734;32;20111;-83
2022/05/12 00:16:39;;;;;;;9.77;4.12;;;;;;;23.03;37.31;98690.78;4487557;32;20072;-83
2022/05/12 00:19:05;;;;;;;8.88;3.95;;;;;;;22.86;37.55;98692.53;4473419;32;20136;-83
2022/05/12 00:21:30;;;;;;;10.05;4.10;;;;;;;22.90;37.46;98691.22;4473505;32;20103;-83
2022/05/12 00:23:58;;;;;;;10.23;4.20;;;;;;;22.95;37.35;98683.50;4487589;32;20097;-84
2022/05/12 00:26:29;;;;;;;9.68;3.60;;;;;;;23.09;37.01;98684.72;4487567;32;20072;-84
2022/05/12 00:28:57;;;;;;;9.20;3.90;;;;;;;22.97;37.32;98682.31;4487536;32;20202;-84
2022/05/12 00:31:22;;;;;;;9.57;4.00;;;;;;;22.97;37.32;98681.50;4487696;32;20121;-84
2022/05/12 00:33:47;;;;;;;10.82;3.90;;;;;;;22.88;37.65;98680.63;4473282;32;20095;-84
2022/05/12 00:36:13;;;;;;;9.23;3.95;;;;;;;22.90;37.42;98680.47;4487285;32;20133;-84
2022/05/12 00:38:39;;;;;;;8.85;4.00;;;;;;;23.05;37.25;98669.94;4487538;32;20133;-83
2022/05/12 00:41:05;;;;;;;10.15;4.05;;;;;;;22.89;37.57;98676.94;4487504;32;20144;-84
2022/05/12 00:44:02;;;;;;;9.07;3.92;;;;;;;22.83;37.89;98671.38;4487548;32;20068;-84
2022/05/12 00:46:33;;;;;;;10.60;4.22;;;;;;;22.96;37.61;98672.56;4472219;32;20160;-82
2022/05/12 00:49:11;;;;;;;9.32;4.40;;;;;;;23.02;37.55;98667.56;4487868;32;20089;-82
2022/05/12 00:51:38;;;;;;;12.18;4.20;;;;;;;22.95;37.88;98678.12;4487767;32;20112;-83
2022/05/12 00:54:09;;;;;;;9.48;4.10;;;;;;;22.93;37.92;98686.34;4473430;32;20519;-82
2022/05/12 00:56:35;;;;;;;11.10;3.85;;;;;;;22.68;38.44;98682.78;4473374;32;20103;-82
2022/05/12 00:59:02;;;;;;;10.05;4.00;;;;;;;22.79;38.37;98678.91;4473472;32;20134;-82
2022/05/12 01:01:28;;;;;;;9.20;4.35;;;;;;;22.77;38.54;98678.25;4487691;32;20096;-82
2022/05/12 01:03:57;;;;;;;9.35;3.90;;;;;;;22.77;38.53;98673.75;4473388;32;20088;-82
2022/05/12 01:06:22;;;;;;;10.25;4.32;;;;;;;22.69;38.72;98673.69;4473362;32;20076;-82
2022/05/12 01:08:47;;;;;;;10.15;4.20;;;;;;;22.73;38.61;98674.22;4487512;32;20374;-82
2022/05/12 01:11:17;;;;;;;10.93;4.40;;;;;;;22.71;38.58;98671.69;4487650;32;20427;-82
2022/05/12 01:13:48;;;;;;;9.65;4.07;;;;;;;22.81;38.34;98678.75;4487253;32;20110;-82
2022/05/12 01:16:39;;;;;;;12.60;4.50;;;;;;;22.65;38.63;98674.19;4487291;32;20099;-82
2022/05/12 01:19:06;;;;;;;9.18;4.00;;;;;;;22.72;38.38;98665.31;4487281;32;20123;-82
2022/05/12 01:21:33;;;;;;;9.43;4.15;;;;;;;22.75;38.30;98672.19;4487403;32;20118;-82
2022/05/12 01:24:00;;;;;;;8.38;3.45;;;;;;;22.73;38.15;98674.22;4487223;32;20448;-82
2022/05/12 01:26:25;;;;;;;8.40;3.62;;;;;;;22.66;38.30;98670.53;4487191;32;20096;-82
2022/05/12 01:28:51;;;;;;;10.30;3.80;;;;;;;22.62;38.31;98672.69;4487264;32;20198;-82
2022/05/12 01:31:18;;;;;;;9.70;3.85;;;;;;;22.68;38.00;98669.34;4472882;32;20096;-81
2022/05/12 01:33:43;;;;;;;8.35;3.65;;;;;;;22.72;37.91;98670.69;4487105;32;20420;-81
2022/05/12 01:36:09;;;;;;;13.70;3.67;;;;;;;22.71;37.89;98663.62;4472615;32;20076;-81
2022/05/12 01:38:34;;;;;;;8.95;3.70;;;;;;;22.32;38.57;98672.25;4487025;32;20148;-81
2022/05/12 01:40:59;;;;;;;9.55;4.30;;;;;;;22.50;38.20;98669.47;4472897;32;20367;-82
2022/05/12 01:43:25;;;;;;;10.48;3.95;;;;;;;22.67;37.86;98666.81;4487013;32;20080;-82
2022/05/12 01:45:50;;;;;;;11.68;4.10;;;;;;;22.66;37.93;98673.22;4486300;32;20072;-82
2022/05/12 01:48:17;;;;;;;10.32;3.65;;;;;;;22.57;38.04;98673.16;4487193;32;20111;-82
2022/05/12 01:50:44;;;;;;;11.30;3.90;;;;;;;22.72;37.73;98665.31;4472965;32;20119;-82
2022/05/12 01:53:10;;;;;;;9.93;4.10;;;;;;;22.73;37.60;98667.00;4487079;32;20099;-82
2022/05/12 01:55:38;;;;;;;10.57;3.92;;;;;;;22.64;37.71;98667.13;4486951;32;20084;-82
2022/05/12 01:58:04;;;;;;;8.85;4.00;;;;;;;22.68;37.69;98666.66;4487172;32;20448;-82
2022/05/12 02:00:30;;;;;;;11.12;3.92;;;;;;;22.69;37.68;98668.31;4459643;32;20534;-81
2022/05/12 02:03:00;;;;;;;9.03;3.73;;;;;;;22.68;37.71;98663.16;4486915;32;20084;-82
2022/05/12 02:05:37;;;;;;;9.00;3.95;;;;;;;22.68;37.72;98666.66;4473116;32;20127;-82
2022/05/12 02:08:03;;;;;;;9.48;4.43;;;;;;;22.64;37.73;98656.41;4487039;32;20115;-82
2022/05/12 02:10:31;;;;;;;9.80;3.67;;;;;;;22.69;37.73;98654.91;4487106;32;20123;-81
2022/05/12 02:12:58;;;;;;;9.90;3.80;;;;;;;22.73;37.61;98655.41;4486780;32;20139;-82
2022/05/12 02:15:23;;;;;;;9.32;3.60;;;;;;;22.82;37.24;98648.22;4472815;32;20088;-81
2022/05/12 02:17:49;;;;;;;7.78;3.40;;;;;;;22.51;37.68;98649.66;4487019;32;20088;-81
2022/05/12 02:20:16;;;;;;;9.32;3.80;;;;;;;22.77;36.98;98644.19;4487099;32;20364;-82
2022/05/12 02:22:42;;;;;;;10.88;3.70;;;;;;;22.74;36.95;98654.44;4472603;32;20118;-82
2022/05/12 02:25:08;;;;;;;8.50;3.72;;;;;;;22.70;36.83;98645.84;4472320;32;20155;-82
2022/05/12 02:27:34;;;;;;;8.68;3.30;;;;;;;22.84;36.58;98635.47;4472523;32;20165;-81
2022/05/12 02:29:59;;;;;;;8.93;3.65;;;;;;;22.78;36.70;98640.50;4472464;32;20104;-82
2022/05/12 02:32:27;;;;;;;8.38;3.62;;;;;;;22.84;36.27;98644.34;4472274;32;20080;-82
2022/05/12 02:34:53;;;;;;;10.85;3.75;;;;;;;22.89;36.29;98641.16;4486677;32;20080;-81
2022/05/12 02:37:19;;;;;;;8.18;3.55;;;;;;;22.85;36.27;98647.88;4486269;32;20156;-81
2022/05/12 02:39:44;;;;;;;8.80;3.45;;;;;;;22.86;36.16;98642.34;4486565;32;20088;-81
2022/05/12 02:42:10;;;;;;;9.68;3.60;;;;;;;22.92;36.27;98636.31;4486559;32;20446;-82
2022/05/12 02:44:36;;;;;;;11.73;4.00;;;;;;;22.58;36.94;98644.50;4486539;32;20094;-82
2022/05/12 02:47:03;;;;;;;9.68;3.70;;;;;;;22.85;36.33;98646.06;4486480;32;20115;-81
2022/05/12 02:49:29;;;;;;;9.02;3.67;;;;;;;22.80;36.43;98636.81;4486430;32;20100;-81
2022/05/12 02:51:54;;;;;;;9.75;3.85;;;;;;;22.86;36.52;98636.13;4472153;32;20447;-82
2022/05/12 02:54:20;;;;;;;14.48;5.47;;;;;;;22.92;37.36;98643.53;4486288;32;20137;-82
2022/05/12 02:56:46;;;;;;;12.88;5.72;;;;;;;22.87;39.19;98651.22;4471928;32;20123;-83
2022/05/12 02:59:12;;;;;;;12.93;7.10;;;;;;;22.59;40.04;98656.91;4487967;32;20092;-82
2022/05/12 03:01:38;;;;;;;14.68;7.40;;;;;;;22.70;41.45;98659.28;4488353;32;20092;-82
2022/05/12 03:04:04;;;;;;;14.68;7.95;;;;;;;22.58;42.23;98666.81;4473907;32;20104;-82
2022/05/12 03:06:30;;;;;;;14.98;8.02;;;;;;;22.49;43.22;98661.56;4488171;32;20097;-81
2022/05/12 03:08:56;;;;;;;12.43;6.95;;;;;;;22.32;43.43;98666.87;4473885;32;20121;-82
2022/05/12 03:11:22;;;;;;;14.85;7.10;;;;;;;22.01;43.46;98661.16;4473917;32;20114;-82
2022/05/12 03:13:49;;;;;;;11.40;5.50;;;;;;;21.94;43.64;98663.66;4474285;32;20088;-82
2022/05/12 03:16:16;;;;;;;14.30;6.53;;;;;;;21.78;43.14;98671.59;4474028;32;20134;-82
2022/05/12 03:18:42;;;;;;;10.90;4.70;;;;;;;21.78;42.99;98669.75;4488449;32;20100;-82
2022/05/12 03:21:09;;;;;;;12.23;4.40;;;;;;;21.39;41.90;98686.19;4488367;32;20485;-82
2022/05/12 03:23:35;;;;;;;12.18;4.55;;;;;;;21.63;41.28;98676.69;4474291;32;20092;-82
2022/05/12 03:26:00;;;;;;;9.40;4.12;;;;;;;21.59;41.17;98680.69;4473723;32;20468;-82
2022/05/12 03:28:26;;;;;;;9.82;4.37;;;;;;;21.71;40.79;98682.13;4473716;32;20447;-82
2022/05/12 03:30:52;;;;;;;9.88;4.20;;;;;;;21.83;40.38;98674.66;4488278;32;20137;-82
2022/05/12 03:33:18;;;;;;;13.05;4.65;;;;;;;21.85;40.65;98669.13;4488328;32;20175;-82
2022/05/12 03:35:45;;;;;;;10.77;4.93;;;;;;;21.97;39.94;98674.06;4488024;32;20100;-82
2022/05/12 03:38:10;;;;;;;12.98;6.18;;;;;;;22.09;40.19;98674.63;4488427;32;20118;-82
2022/05/12 03:40:36;;;;;;;12.75;6.87;;;;;;;22.04;42.56;98673.41;4488150;32;20088;-82
2022/05/12 03:43:01;;;;;;;14.77;7.15;;;;;;;22.07;42.59;98678.47;4488190;32;20084;-82
2022/05/12 03:45:27;;;;;;;17.02;9.60;;;;;;;22.02;44.13;98678.97;4473642;32;20156;-81
2022/05/12 03:47:55;;;;;;;16.17;9.77;;;;;;;22.08;45.12;98678.31;4487934;32;20115;-82
2022/05/12 03:50:22;;;;;;;15.25;8.80;;;;;;;21.85;46.29;98678.03;4473887;32;20114;-82
2022/05/12 03:52:49;;;;;;;16.25;8.05;;;;;;;21.71;45.45;98683.94;4487725;32;20088;-82
2022/05/12 03:55:16;;;;;;;13.45;7.25;;;;;;;21.79;45.40;98692.91;4473597;32;20100;-81
2022/05/12 03:57:42;;;;;;;;;;;;;;;21.75;44.57;98688.00;4475239;31;20504;-80
2022/05/12 04:00:10;;;;;;;12.93;6.10;;;;;;;21.98;43.80;98683.81;4487772;32;20050;-81
2022/05/12 04:02:35;;;;;;;12.15;6.22;;;;;;;22.08;42.90;98681.00;4487861;32;20088;-81
2022/05/12 04:05:01;;;;;;;13.15;6.12;;;;;;;22.14;42.74;98682.19;4487743;32;20140;-83
2022/05/12 04:07:26;;;;;;;10.93;5.75;;;;;;;22.26;42.49;98691.66;4473561;32;20097;-80
2022/05/12 04:09:52;;;;;;;13.98;5.70;;;;;;;22.26;43.16;98691.66;4487330;32;20114;-81
2022/05/12 04:12:18;;;;;;;10.35;5.22;;;;;;;22.41;41.96;98691.91;4473401;32;20128;-79
2022/05/12 04:14:43;;;;;;;12.68;5.03;;;;;;;22.54;41.47;98689.63;4487676;32;20165;-82
2022/05/12 04:17:13;;;;;;;10.82;5.15;;;;;;;22.78;41.43;98686.16;4487632;32;20119;-80
2022/05/12 04:19:42;;;;;;;12.07;5.15;;;;;;;22.94;40.76;98687.19;4487569;32;20084;-79
2022/05/12 04:22:08;;;;;;;10.23;4.82;;;;;;;23.12;40.82;98687.94;4487709;32;20560;-79
2022/05/12 04:24:33;;;;;;;10.77;4.80;;;;;;;23.29;39.13;98691.44;4500317;31;20132;-78
2022/05/12 04:26:59;;;;;;;9.25;4.47;;;;;;;23.44;38.84;98688.09;4489162;31;20118;-77
2022/05/12 04:29:25;;;;;;;14.73;6.05;;;;;;;23.61;39.21;98695.16;4503348;31;20072;-79
2022/05/12 04:31:50;;;;;;;15.57;8.18;;;;;;;23.82;41.12;98693.81;4489134;31;20080;-78
2022/05/12 04:37:00;;;;;;;13.23;7.80;;;;;;;24.00;42.84;98699.81;4503181;31;20114;-79
2022/05/12 04:39:26;;;;;;;15.50;8.15;;;;;;;24.09;42.90;98698.78;4503224;31;20427;-79
2022/05/12 04:41:51;;;;;;;15.00;8.65;;;;;;;24.28;42.24;98697.56;4503260;31;20098;-80
2022/05/12 04:44:16;;;;;;;17.20;9.07;;;;;;;24.33;42.35;98699.72;4503102;31;20080;-78
2022/05/12 04:46:43;;;;;;;16.42;9.82;;;;;;;24.46;42.39;98702.69;4503213;31;20337;-80
2022/05/12 04:49:09;;;;;;;19.58;9.80;;;;;;;24.47;42.35;98706.22;4489037;31;20084;-80
2022/05/12 04:51:35;;;;;;;16.05;9.27;;;;;;;24.52;42.23;98714.66;4503306;31;20148;-82
2022/05/12 04:54:01;;;;;;;17.85;9.45;;;;;;;24.55;42.00;98717.00;4503293;31;20140;-80
2022/05/12 04:56:27;;;;;;;15.10;8.80;;;;;;;24.47;42.03;98717.84;4503322;31;20220;-78
2022/05/12 04:58:52;;;;;;;15.70;9.60;;;;;;;24.63;42.14;98719.66;4503359;31;20099;-81
2022/05/12 05:01:18;;;;;;;17.62;9.38;;;;;;;24.64;42.02;98717.78;4503338;31;20479;-81
2022/05/12 05:03:46;;;;;;;16.90;9.02;;;;;;;24.56;42.26;98717.84;4502384;31;20092;-81
2022/05/12 05:06:12;;;;;;;16.02;8.48;;;;;;;24.73;42.08;98716.75;4501097;31;20462;-81
2022/05/12 05:08:37;;;;;;;17.20;8.65;;;;;;;24.81;41.95;98716.69;4503188;31;20257;-81
2022/05/12 05:11:04;;;;;;;15.70;8.85;;;;;;;24.86;41.35;98717.00;4493342;31;20080;-78
2022/05/12 05:13:30;;;;;;;16.40;8.93;;;;;;;25.04;41.18;98718.59;4473269;32;20096;-78
2022/05/12 05:15:56;;;;;;;19.33;9.70;;;;;;;25.08;41.01;98722.59;4487542;32;20144;-79
2022/05/12 05:18:22;;;;;;;15.82;8.55;;;;;;;25.16;40.64;98727.09;4487556;32;20092;-79
2022/05/12 05:20:48;;;;;;;14.87;9.15;;;;;;;25.22;40.86;98719.16;4486483;32;20081;-78
2022/05/12 05:23:19;;;;;;;17.35;9.48;;;;;;;25.30;40.79;98727.22;4487498;32;20118;-79
2022/05/12 05:25:44;;;;;;;16.60;9.60;;;;;;;25.40;40.45;98734.19;4487334;32;20084;-78
2022/05/12 05:28:10;;;;;;;16.58;10.07;;;;;;;25.51;40.05;98736.47;4489070;31;20527;-79
2022/05/12 05:30:36;;;;;;;15.40;9.95;;;;;;;25.48;39.77;98726.91;4480955;31;20075;-78
2022/05/12 05:33:02;;;;;;;15.88;8.95;;;;;;;25.48;39.74;98721.50;4480358;31;20134;-79
2022/05/12 05:35:27;;;;;;;16.58;8.45;;;;;;;25.57;39.19;98722.25;4494982;31;20143;-79
2022/05/12 05:37:54;;;;;;;16.02;8.45;;;;;;;25.68;39.04;98729.09;4493618;31;20428;-77
2022/05/12 05:40:22;;;;;;;15.30;7.40;;;;;;;25.64;39.79;98727.78;4494881;31;20084;-79
2022/05/12 05:42:48;;;;;;;15.02;8.13;;;;;;;25.96;38.31;98723.13;4479688;31;20239;-79
2022/05/12 05:45:16;;;;;;;14.48;8.18;;;;;;;25.97;38.05;98727.50;4479347;31;20116;-80
2022/05/12 05:47:45;;;;;;;16.35;8.00;;;;;;;26.06;38.10;98731.81;4480493;31;20154;-79
2022/05/12 05:50:13;;;;;;;12.95;7.07;;;;;;;26.11;37.52;98739.34;4479239;31;20148;-79
2022/05/12 05:55:22;;;;;;;13.80;7.10;;;;;;;26.09;37.59;98728.72;4487193;32;20209;-80
2022/05/12 05:57:47;;;;;;;14.13;6.80;;;;;;;26.34;37.80;98736.56;4486902;31;20111;-78
2022/05/12 06:00:14;;;;;;;15.00;8.88;;;;;;;26.50;36.95;98733.66;4486827;31;20092;-80
2022/05/12 06:02:39;;;;;;;15.23;6.85;;;;;;;26.62;36.63;98728.66;4487791;31;20123;-80
2022/05/12 06:05:06;;;;;;;14.98;6.93;;;;;;;26.12;36.52;98741.03;4494170;31;20099;-81
2022/05/12 06:07:34;;;;;;;14.17;7.03;;;;;;;26.33;35.55;98740.28;4495081;31;20405;-81
2022/05/12 06:09:59;;;;;;;14.27;7.55;;;;;;;26.37;35.81;98734.31;4490842;31;20147;-81
2022/05/12 06:12:25;;;;;;;12.65;6.28;;;;;;;26.44;36.04;98742.50;4488231;31;20120;-79
2022/05/12 06:14:50;;;;;;;14.43;6.37;;;;;;;26.29;36.43;98746.06;4496397;31;20133;-77
2022/05/12 06:17:16;;;;;;;14.18;6.22;;;;;;;26.34;36.51;98748.19;4486708;31;20134;-75
2022/05/12 06:19:41;;;;;;;11.82;6.10;;;;;;;26.55;37.23;98750.16;4493012;31;20458;-75
2022/05/12 06:22:07;;;;;;;13.60;5.93;;;;;;;26.61;35.89;98737.78;4492289;31;20134;-75
2022/05/12 06:24:32;;;;;;;12.82;5.75;;;;;;;26.79;36.04;98740.06;4490196;31;20100;-74
2022/05/12 06:26:58;;;;;;;14.35;5.30;;;;;;;26.91;34.48;98744.00;4497944;31;20466;-74
2022/05/12 06:29:23;;;;;;;12.37;5.90;;;;;;;26.99;34.53;98743.03;4487690;31;20099;-74
2022/05/12 06:31:48;;;;;;;12.35;5.28;;;;;;;26.96;34.59;98741.53;4493403;31;20122;-75
2022/05/12 06:34:15;;;;;;;17.42;6.62;;;;;;;26.95;34.75;98741.75;4492491;31;20440;-74
2022/05/12 06:36:40;;;;;;;11.88;5.40;;;;;;;27.07;34.99;98732.09;4495516;31;20162;-74
2022/05/12 06:39:06;;;;;;;11.93;5.60;;;;;;;27.24;35.27;98730.00;4487488;31;20088;-73
2022/05/12 06:41:32;;;;;;;13.38;5.55;;;;;;;27.21;34.93;98736.59;4497013;31;20116;-75
2022/05/12 06:43:57;;;;;;;13.20;5.03;;;;;;;27.31;35.36;98738.19;4469904;32;20108;-75
2022/05/12 06:46:25;;;;;;;12.10;4.97;;;;;;;27.02;34.40;98743.50;4484749;32;20115;-74
2022/05/12 06:48:50;;;;;;;;;;;;;;;27.22;34.55;98743.69;4497121;31;20493;-75
2022/05/12 06:51:16;;;;;;;10.45;4.53;;;;;;;27.28;34.48;98733.19;4487444;31;19984;-75
2022/05/12 06:53:42;;;;;;;10.05;4.15;;;;;;;27.42;33.67;98735.81;4485289;31;20126;-73
2022/05/12 06:56:07;;;;;;;12.02;5.10;;;;;;;27.48;33.83;98738.78;4500290;31;20883;-74
2022/05/12 06:58:36;;;;;;;12.05;5.15;;;;;;;27.32;34.73;98743.41;4489818;31;20080;-75
2022/05/12 07:01:02;;;;;;;11.27;4.90;;;;;;;27.29;35.59;98743.78;4497578;31;20092;-74
2022/05/12 07:03:27;;;;;;;11.48;5.20;;;;;;;27.51;34.88;98749.22;4485445;31;20168;-74
2022/05/12 07:05:53;;;;;;;11.52;4.82;;;;;;;27.46;34.40;98753.31;4499456;31;20116;-83
2022/05/12 07:08:19;;;;;;;11.12;5.30;;;;;;;27.52;33.08;98745.47;4474707;32;20420;-81
2022/05/12 07:10:44;;;;;;;11.18;4.68;;;;;;;27.48;33.04;98746.91;4486298;32;20081;-81
2022/05/12 07:13:10;;;;;;;14.80;4.70;;;;;;;27.55;33.83;98740.50;4486034;32;20085;-81
2022/05/12 07:15:36;;;;;;;11.90;4.53;;;;;;;27.71;32.62;98742.09;4471596;32;20127;-81
2022/05/12 07:18:01;;;;;;;12.35;5.07;;;;;;;27.54;33.34;98743.41;4485919;32;20106;-81
2022/05/12 07:28:40;;;;;;;11.60;5.00;;;;;;;27.85;33.54;98738.50;4485834;32;20374;-81
2022/05/12 07:31:07;;;;;;;11.70;5.18;;;;;;;27.93;34.11;98740.25;4485768;32;20085;-81
2022/05/12 07:33:39;;;;;;;11.63;4.47;;;;;;;28.14;34.06;98744.75;4485781;32;20448;-81
2022/05/12 07:36:09;;;;;;;13.05;4.75;;;;;;;28.28;34.18;98742.13;4471321;32;20144;-83
2022/05/12 07:38:35;;;;;;;12.40;4.90;;;;;;;28.32;33.86;98733.41;4471848;32;20223;-83
2022/05/12 07:41:01;;;;;;;12.73;4.85;;;;;;;28.50;33.23;98735.59;4485564;32;20092;-84
2022/05/12 07:43:26;;;;;;;12.82;4.75;;;;;;;28.47;32.84;98732.44;4485811;32;20080;-83
2022/05/12 07:45:53;;;;;;;11.23;4.60;;;;;;;28.58;33.06;98732.72;4487960;32;20080;-83
2022/05/12 07:48:19;;;;;;;10.57;4.78;;;;;;;28.70;32.81;98729.44;4488041;32;20100;-83
2022/05/12 07:50:44;;;;;;;14.48;4.80;;;;;;;28.78;33.08;98740.12;4488034;32;20088;-83
2022/05/12 07:53:10;;;;;;;13.07;4.60;;;;;;;28.82;32.98;98736.81;4487847;32;20173;-83
2022/05/12 07:55:35;;;;;;;12.25;4.30;;;;;;;28.72;32.54;98732.78;4487785;32;20084;-83
2022/05/12 07:58:03;;;;;;;13.50;4.62;;;;;;;28.84;32.73;98733.91;4487798;32;20099;-83
2022/05/12 08:00:30;;;;;;;11.70;4.97;;;;;;;28.97;32.37;98735.81;4488011;32;20772;-83
2022/05/12 08:02:56;;;;;;;10.50;4.80;;;;;;;29.07;32.15;98738.13;4473791;32;20122;-83
2022/05/12 08:05:22;;;;;;;12.63;4.95;;;;;;;29.15;32.54;98738.81;4473593;32;20088;-83
2022/05/12 08:07:48;;;;;;;11.10;4.70;;;;;;;29.06;32.16;98742.72;4473549;32;20102;-83
2022/05/12 08:10:15;;;;;;;11.10;4.57;;;;;;;29.16;32.58;98737.78;4487834;32;20119;-83
2022/05/12 08:12:40;;;;;;;12.13;4.37;;;;;;;29.29;32.26;98741.56;4487805;32;20088;-83
2022/05/12 08:15:06;;;;;;;15.63;5.10;;;;;;;29.36;31.87;98751.41;4487724;32;20318;-83
2022/05/12 08:17:32;;;;;;;12.02;4.80;;;;;;;29.33;31.91;98748.25;4473275;32;20144;-83
2022/05/12 08:19:57;;;;;;;11.80;4.95;;;;;;;29.31;31.70;98751.16;4487681;32;20356;-83
2022/05/12 08:22:24;;;;;;;13.35;5.60;;;;;;;29.43;32.36;98747.84;4487669;32;20351;-83
2022/05/12 08:24:50;;;;;;;10.48;4.62;;;;;;;29.46;32.53;98752.84;4473411;32;20081;-83
2022/05/12 08:27:15;;;;;;;10.38;4.78;;;;;;;29.34;31.92;98749.91;4473494;32;20367;-83
2022/05/12 08:29:41;;;;;;;13.65;4.97;;;;;;;29.04;32.78;98749.41;4487525;32;20096;-83
2022/05/12 08:32:07;;;;;;;11.25;4.87;;;;;;;29.30;32.04;98748.66;4487537;32;20218;-83
2022/05/12 08:34:32;;;;;;;11.52;4.85;;;;;;;29.23;32.87;98747.81;4487724;32;20821;-83
2022/05/12 08:36:58;;;;;;;11.90;5.53;;;;;;;29.27;32.31;98744.47;4487282;32;20115;-83
2022/05/12 08:39:23;;;;;;;13.30;5.07;;;;;;;29.23;32.36;98748.66;4487526;32;20088;-83
2022/05/12 08:41:58;;;;;;;10.98;4.95;;;;;;;29.24;32.77;98750.31;4487625;32;20073;-83
2022/05/12 08:44:24;;;;;;;11.55;4.78;;;;;;;29.21;33.25;98753.44;4473400;32;20080;-83
2022/05/12 08:46:58;;;;;;;10.65;4.90;;;;;;;29.19;32.87;98753.66;4473385;32;20362;-83
2022/05/12 08:49:35;;;;;;;11.77;4.95;;;;;;;29.47;32.73;98754.53;4487880;32;20181;-83
2022/05/12 08:52:24;;;;;;;12.73;5.20;;;;;;;29.39;32.83;98750.97;4473396;32;20119;-83
2022/05/12 08:54:51;;;;;;;14.20;5.05;;;;;;;29.53;32.22;98754.53;4473343;32;20409;-83
2022/05/12 08:57:30;;;;;;;13.05;5.50;;;;;;;29.51;32.59;98753.06;4487401;32;20145;-83
2022/05/12 08:59:56;;;;;;;13.23;4.90;;;;;;;29.56;31.97;98747.88;4487487;32;20089;-83
2022/05/12 09:02:45;;;;;;;12.02;5.20;;;;;;;29.53;32.21;98757.25;4473224;32;20122;-83
2022/05/12 09:05:14;;;;;;;13.62;5.70;;;;;;;29.60;32.03;98755.38;4473283;32;20234;-83
2022/05/12 09:07:42;;;;;;;14.85;5.30;;;;;;;29.44;32.55;98754.94;4473417;32;20392;-83
2022/05/12 09:10:35;;;;;;;11.20;4.97;;;;;;;29.45;32.40;98746.59;4487387;32;20463;-84
2022/05/12 09:13:33;;;;;;;15.70;4.62;;;;;;;29.45;32.59;98754.72;4487570;32;20114;-83
2022/05/12 09:16:06;;;;;;;13.77;5.12;;;;;;;29.46;32.33;98753.72;4471685;32;20099;-83
2022/05/12 09:18:34;;;;;;;11.88;4.60;;;;;;;29.61;32.11;98764.34;4487361;32;20510;-84
2022/05/12 09:21:11;;;;;;;16.83;5.20;;;;;;;29.64;31.30;98755.81;4487272;32;20096;-83
2022/05/12 09:23:38;;;;;;;;;;;;;;;29.77;31.37;98760.44;4487674;32;20568;-83
2022/05/12 09:26:30;;;;;;;13.02;5.45;;;;;;;29.79;31.32;98769.22;4487268;32;19979;-83
2022/05/12 09:29:12;;;;;;;13.77;4.85;;;;;;;29.73;31.85;98770.88;4487273;32;20103;-84
2022/05/12 09:31:39;;;;;;;12.43;5.10;;;;;;;29.69;31.95;98768.75;4487450;32;20088;-83
2022/05/12 09:34:20;;;;;;;11.65;4.53;;;;;;;29.66;32.23;98764.56;4487197;32;20155;-83
2022/05/12 09:36:46;;;;;;;11.15;4.50;;;;;;;29.81;31.89;98764.41;4486913;32;20156;-84
2022/05/12 09:39:34;;;;;;;10.45;4.32;;;;;;;29.64;30.95;98763.12;4487045;32;20100;-84
2022/05/12 09:42:01;;;;;;;10.23;4.57;;;;;;;29.69;29.35;98766.03;4486739;32;20096;-84
2022/05/12 09:44:29;;;;;;;11.30;4.57;;;;;;;29.67;30.16;98768.97;4487253;32;20190;-83
2022/05/12 09:46:55;;;;;;;11.63;4.62;;;;;;;29.63;31.00;98773.13;4472880;32;20119;-84
2022/05/12 09:49:23;;;;;;;11.90;4.85;;;;;;;29.69;30.61;98760.59;4487068;32;20465;-83
2022/05/12 09:51:48;;;;;;;11.80;4.62;;;;;;;29.73;30.93;98764.63;4487161;32;20957;-83
2022/05/12 09:54:28;;;;;;;12.10;4.72;;;;;;;29.72;30.27;98765.63;4487113;32;20096;-83
2022/05/12 09:57:16;;;;;;;10.95;4.50;;;;;;;29.78;30.42;98760.22;4487033;32;20080;-84
2022/05/12 09:59:43;;;;;;;12.15;4.72;;;;;;;29.85;29.47;98759.41;4487017;32;20111;-83
2022/05/12 10:08:25;;;;;;;10.68;5.12;;;;;;;29.78;29.38;98760.22;4486409;32;20153;-84
2022/05/12 10:10:56;;;;;;;11.35;4.80;;;;;;;29.73;31.08;98759.19;4472603;32;20092;-83
2022/05/12 10:13:38;;;;;;;13.80;5.10;;;;;;;29.70;31.86;98756.84;4472818;32;20129;-83
2022/05/12 10:16:04;;;;;;;12.95;5.05;;;;;;;29.76;31.32;98756.88;4472608;32;20459;-83
2022/05/12 10:18:42;;;;;;;11.82;5.55;;;;;;;29.84;31.28;98755.00;4472730;32;20110;-83
2022/05/12 10:21:29;;;;;;;;;;;;;;;29.87;31.29;98746.44;4472905;32;20154;-83
2022/05/12 10:24:13;;;;;;;11.12;4.85;;;;;;;29.97;31.23;98744.97;4487035;32;19980;-83
2022/05/12 10:27:09;;;;;;;10.50;4.55;;;;;;;29.66;31.26;98751.00;4486834;32;20084;-84
2022/05/12 10:30:05;;;;;;;11.20;5.15;;;;;;;29.95;30.71;98738.91;4407052;32;20089;-84
2022/05/12 10:32:33;;;;;;;12.80;4.75;;;;;;;29.88;30.78;98735.37;4407115;32;20118;-84
2022/05/12 10:35:19;;;;;;;12.25;5.05;;;;;;;29.84;31.13;98730.56;4407109;32;20136;-84
2022/05/12 10:38:06;;;;;;;11.18;4.55;;;;;;;29.88;30.71;98739.97;4406933;32;20508;-84
2022/05/12 10:40:52;;;;;;;10.73;4.80;;;;;;;29.92;31.10;98741.22;4407005;32;20168;-84
2022/05/12 10:43:42;;;;;;;10.98;4.78;;;;;;;29.83;30.74;98732.44;4394371;32;20453;-84
2022/05/12 10:46:16;;;;;;;11.95;5.25;;;;;;;29.88;30.51;98734.53;4406928;32;20145;-83
2022/05/12 10:48:54;;;;;;;10.93;4.75;;;;;;;29.66;31.14;98744.75;4394370;32;20098;-84
2022/05/12 10:51:38;;;;;;;13.05;5.30;;;;;;;29.76;31.98;98746.00;4394289;32;20082;-83
2022/05/12 10:54:25;;;;;;;11.07;4.75;;;;;;;29.97;31.78;98744.13;4406876;32;20087;-83
2022/05/12 10:57:32;;;;;;;11.73;5.20;;;;;;;29.93;31.09;98742.87;4406668;32;20106;-83
2022/05/12 11:00:24;;;;;;;11.23;5.00;;;;;;;29.82;30.85;98738.09;4346852;33;20107;-84
2022/05/12 11:02:53;;;;;;;11.38;4.70;;;;;;;29.99;31.39;98740.16;4334458;33;20601;-83
2022/05/12 11:05:21;;;;;;;11.57;5.00;;;;;;;30.08;31.25;98739.97;4351211;32;20470;-83
2022/05/12 11:08:11;;;;;;;11.02;4.62;;;;;;;29.85;31.31;98729.53;4406512;32;20438;-83
2022/05/12 11:10:42;;;;;;;11.38;5.18;;;;;;;30.01;31.92;98736.41;4406698;32;20140;-84
2022/05/12 11:13:18;;;;;;;10.82;5.07;;;;;;;30.22;31.30;98721.75;4394038;32;20433;-83
2022/05/12 11:15:58;;;;;;;12.50;4.82;;;;;;;30.28;31.51;98721.72;4393823;32;20480;-83
2022/05/12 11:18:29;;;;;;;10.95;4.95;;;;;;;30.10;29.81;98718.84;4406653;32;20129;-84
2022/05/12 11:21:02;;;;;;;10.50;4.97;;;;;;;29.94;30.96;98715.53;4395937;32;20142;-83
2022/05/12 11:24:05;;;;;;;11.35;4.93;;;;;;;29.99;30.45;98717.59;4395974;32;20083;-84
2022/05/12 11:27:00;;;;;;;10.70;4.03;;;;;;;30.17;29.58;98716.94;4408493;32;20073;-83
2022/05/12 11:29:43;;;;;;;10.48;4.03;;;;;;;29.91;29.75;98717.81;4408497;32;20117;-84
2022/05/12 11:32:26;;;;;;;8.90;4.10;;;;;;;29.89;29.11;98714.47;4408260;32;20124;-83
2022/05/12 11:34:55;;;;;;;10.40;4.43;;;;;;;30.02;29.28;98706.31;4450394;32;20382;-84
2022/05/12 11:37:50;;;;;;;10.38;4.30;;;;;;;30.24;28.92;98706.06;4473476;32;20119;-84
2022/05/12 11:40:40;;;;;;;9.15;4.28;;;;;;;30.36;28.61;98707.09;4423459;32;20125;-83
2022/05/12 11:46:50;;;;;;;9.50;4.05;;;;;;;30.34;28.57;98701.03;4423731;32;20121;-83
2022/05/12 11:49:45;;;;;;;11.20;4.50;;;;;;;30.46;28.81;98701.22;4408601;32;20086;-83
2022/05/12 11:52:16;;;;;;;9.73;3.87;;;;;;;30.43;28.54;98699.75;4408311;32;20110;-83
2022/05/12 11:54:52;;;;;;;10.73;4.35;;;;;;;30.25;27.95;98703.13;4408320;32;20129;-83
2022/05/12 11:57:40;;;;;;;10.73;4.30;;;;;;;30.51;28.31;98695.97;4395532;32;20167;-84
2022/05/12 12:00:11;;;;;;;9.35;4.32;;;;;;;30.13;28.59;98696.66;4395776;32;20098;-84
2022/05/12 12:02:44;;;;;;;9.88;3.75;;;;;;;30.36;29.12;98702.47;4395692;32;20125;-83